Time;durP1;ratioP1;P1;durP2;ratioP2;P2;SDS_P1;SDS_P2;PMS_P1;PMS_P2;Temp;Humidity;BMP_temperature;BMP_pressure;BME280_temperature;BME280_humidity;BME280_pressure;Samples;Min_cycle;Max_cycle;Signal;HPM_P1;HPM_P2
2024/04/10 00:00:21;;;;;;;3.88;1.45;;;;;;;10.71;52.26;99437.78;5424735;26;20018;-65
2024/04/10 00:02:48;;;;;;;3.75;1.33;;;;;;;10.72;52.43;99442.09;5487295;26;20461;-65
2024/04/10 00:05:17;;;;;;;4.47;1.13;;;;;;;10.73;52.30;99442.91;5450543;26;19999;-65
2024/04/10 00:07:44;;;;;;;2.90;1.20;;;;;;;10.69;52.59;99437.31;5419225;26;20357;-65
2024/04/10 00:10:11;;;;;;;2.35;1.20;;;;;;;10.68;52.32;99432.97;5418922;26;20009;-65
2024/04/10 00:12:38;;;;;;;6.10;1.60;;;;;;;10.69;52.60;99437.31;5418469;26;20002;-65
2024/04/10 00:15:05;;;;;;;4.35;1.42;;;;;;;10.69;52.71;99433.78;5450128;26;19995;-64
2024/04/10 00:17:31;;;;;;;3.58;1.15;;;;;;;10.67;52.54;99441.50;5418931;26;20106;-64
2024/04/10 00:19:58;;;;;;;6.25;1.17;;;;;;;10.68;52.89;99441.16;5450367;26;20466;-65
2024/04/10 00:22:26;;;;;;;5.03;1.02;;;;;;;10.67;53.08;99436.84;5453552;26;20030;-65
2024/04/10 00:24:53;;;;;;;3.90;1.38;;;;;;;10.65;52.87;99439.09;5453957;26;20014;-65
2024/04/10 00:27:22;;;;;;;2.75;1.35;;;;;;;10.65;52.96;99449.19;5453887;26;20010;-65
2024/04/10 00:29:50;;;;;;;3.53;1.30;;;;;;;10.67;52.59;99453.19;5453950;26;19998;-66
2024/04/10 00:32:18;;;;;;;4.25;1.40;;;;;;;10.64;53.07;99448.41;5453688;26;19999;-66
2024/04/10 00:34:45;;;;;;;7.75;1.55;;;;;;;10.58;52.98;99449.69;5474684;26;20048;-65
2024/04/10 00:37:12;;;;;;;6.95;1.65;;;;;;;10.57;53.22;99450.81;5439863;26;20028;-65
2024/04/10 00:39:39;;;;;;;7.93;2.00;;;;;;;10.57;53.38;99448.88;5494788;26;19994;-65
2024/04/10 00:42:05;;;;;;;7.93;1.98;;;;;;;10.60;52.94;99452.91;5490809;26;20006;-64
2024/04/10 00:44:32;;;;;;;4.93;1.90;;;;;;;10.58;53.15;99455.94;5490658;26;20307;-64
2024/04/10 00:46:59;;;;;;;6.25;1.70;;;;;;;10.55;53.08;99472.94;5490068;26;20013;-64
2024/04/10 00:49:26;;;;;;;3.55;1.65;;;;;;;10.51;53.22;99458.38;5490019;26;20006;-64
2024/04/10 00:51:53;;;;;;;5.30;1.55;;;;;;;10.50;53.67;99469.59;5427879;26;19998;-65
2024/04/10 00:54:20;;;;;;;6.38;1.50;;;;;;;10.50;53.35;99466.88;5490133;26;20438;-65
2024/04/10 00:56:47;;;;;;;6.35;1.27;;;;;;;10.43;54.00;99474.75;5489766;26;19994;-65
2024/04/10 00:59:14;;;;;;;5.35;1.60;;;;;;;10.39;53.61;99480.03;5489914;26;19994;-65
2024/04/10 01:01:41;;;;;;;7.80;1.90;;;;;;;10.46;54.11;99483.09;5489707;26;20002;-65
2024/04/10 01:04:08;;;;;;;4.55;1.88;;;;;;;10.47;53.68;99487.41;5484641;26;20461;-65
2024/04/10 01:06:35;;;;;;;6.95;1.92;;;;;;;10.49;53.82;99489.81;5479906;26;20006;-64
2024/04/10 01:09:02;;;;;;;5.93;1.70;;;;;;;10.46;54.14;99488.53;5457787;26;20009;-65
2024/04/10 01:11:29;;;;;;;5.85;1.73;;;;;;;10.44;53.79;99484.53;5489511;26;20474;-66
2024/04/10 01:13:56;;;;;;;7.50;1.88;;;;;;;10.41;54.04;99494.19;5489984;26;19998;-65
2024/04/10 01:16:23;;;;;;;7.15;1.67;;;;;;;10.36;54.12;99493.53;5458143;26;20041;-65
2024/04/10 01:18:50;;;;;;;4.05;1.48;;;;;;;10.30;54.13;99496.41;5489455;26;20339;-65
2024/04/10 01:21:17;;;;;;;6.10;1.73;;;;;;;10.28;54.19;99490.50;5489436;26;20005;-64
2024/04/10 01:23:44;;;;;;;5.22;2.00;;;;;;;10.31;54.07;99500.75;5489565;26;20005;-64
2024/04/10 01:26:11;;;;;;;6.47;1.45;;;;;;;10.33;54.40;99500.41;5489633;26;19994;-64
2024/04/10 01:28:38;;;;;;;4.35;1.20;;;;;;;10.30;54.03;99506.53;5489485;26;20009;-64
2024/04/10 01:31:05;;;;;;;7.85;1.70;;;;;;;10.27;54.52;99497.06;5488948;26;20412;-64
2024/04/10 01:33:32;;;;;;;7.78;1.73;;;;;;;10.21;54.67;99495.59;5488736;26;20016;-65
2024/04/10 01:36:03;;;;;;;4.07;1.45;;;;;;;10.17;54.45;99502.81;5474076;26;20006;-65
2024/04/10 01:38:31;;;;;;;4.60;1.65;;;;;;;10.14;54.82;99499.94;5488958;26;19994;-65
2024/04/10 01:40:57;;;;;;;5.32;1.75;;;;;;;10.13;55.09;99496.41;5488777;26;19999;-65
2024/04/10 01:43:24;;;;;;;6.68;1.80;;;;;;;10.12;55.05;99508.41;5489434;26;20049;-66
2024/04/10 01:45:51;;;;;;;6.13;1.38;;;;;;;10.10;55.21;99507.16;5489359;26;20010;-65
2024/04/10 01:48:18;;;;;;;4.78;1.50;;;;;;;10.08;55.29;99521.09;5489064;26;20050;-64
2024/04/10 01:50:45;;;;;;;3.47;1.40;;;;;;;10.04;55.59;99517.41;5489265;26;20002;-65
2024/04/10 01:53:12;;;;;;;3.13;2.03;;;;;;;10.00;55.61;99519.94;5456962;26;20010;-65
2024/04/10 01:55:38;;;;;;;9.32;1.70;;;;;;;9.96;55.53;99521.72;5456737;26;20417;-66
2024/04/10 01:58:05;;;;;;;3.88;1.38;;;;;;;9.96;55.71;99527.16;5488664;26;19994;-65
2024/04/10 02:00:35;;;;;;;10.70;2.28;;;;;;;9.90;55.57;99527.66;5488525;26;20443;-65
2024/04/10 02:03:02;;;;;;;3.13;1.60;;;;;;;9.86;56.21;99527.50;5488170;26;20001;-65
2024/04/10 02:05:29;;;;;;;5.18;1.50;;;;;;;9.88;55.73;99524.44;5441439;26;20017;-66
2024/04/10 02:07:55;;;;;;;4.28;1.65;;;;;;;9.82;55.94;99531.16;5488764;26;19998;-65
2024/04/10 02:10:22;;;;;;;6.38;1.70;;;;;;;9.83;56.38;99533.53;5457161;26;20113;-65
2024/04/10 02:12:49;;;;;;;5.25;1.83;;;;;;;9.81;56.19;99535.78;5488989;26;19994;-66
2024/04/10 02:15:16;;;;;;;3.30;1.75;;;;;;;9.76;56.10;99538.69;5489214;26;19998;-65
2024/04/10 02:17:42;;;;;;;5.28;1.88;;;;;;;9.73;56.28;99543.97;5499032;26;19990;-65
2024/04/10 02:20:10;;;;;;;4.53;1.33;;;;;;;9.68;56.23;99543.00;5497249;26;19999;-65
2024/04/10 02:22:40;;;;;;;6.28;1.52;;;;;;;9.71;56.57;99549.72;5490917;26;20013;-65
2024/04/10 02:25:07;;;;;;;5.20;1.40;;;;;;;9.73;56.55;99549.41;5456523;26;20014;-65
2024/04/10 02:27:33;;;;;;;4.30;1.50;;;;;;;9.70;56.45;99556.28;5488627;26;19994;-65
2024/04/10 02:30:00;;;;;;;8.23;2.10;;;;;;;9.65;56.40;99557.22;5456432;26;19998;-65
2024/04/10 02:32:27;;;;;;;9.77;1.80;;;;;;;9.57;56.71;99554.50;5455841;26;20070;-64
2024/04/10 02:34:54;;;;;;;7.18;1.67;;;;;;;9.53;57.15;99562.50;5472475;26;20038;-65
2024/04/10 02:37:20;;;;;;;6.40;1.73;;;;;;;9.48;57.09;99565.34;5488281;26;20071;-65
2024/04/10 02:39:47;;;;;;;3.40;1.55;;;;;;;9.45;57.14;99571.41;5488373;26;19998;-64
2024/04/10 02:42:14;;;;;;;7.65;1.88;;;;;;;9.47;57.33;99576.53;5487974;26;19998;-65
2024/04/10 02:44:41;;;;;;;5.90;1.83;;;;;;;9.50;57.14;99574.00;5487245;26;19998;-65
2024/04/10 02:47:07;;;;;;;6.30;1.90;;;;;;;9.50;56.87;99578.66;5487940;26;19990;-65
2024/04/10 02:49:34;;;;;;;6.95;1.80;;;;;;;9.48;56.93;99572.69;5517167;26;20048;-65
2024/04/10 02:52:01;;;;;;;6.18;1.80;;;;;;;9.43;57.41;99579.09;5487771;26;20030;-65
2024/04/10 02:54:27;;;;;;;6.22;1.60;;;;;;;9.45;57.39;99573.34;5456175;26;19998;-65
2024/04/10 02:56:55;;;;;;;3.50;1.55;;;;;;;9.45;57.40;99574.13;5487974;26;19994;-66
2024/04/10 02:59:21;;;;;;;7.38;2.10;;;;;;;9.47;57.55;99573.81;5487889;26;20009;-64
2024/04/10 03:01:51;;;;;;;5.38;2.33;;;;;;;9.41;57.15;99575.88;5487429;26;20009;-64
2024/04/10 03:04:17;;;;;;;3.95;1.52;;;;;;;9.39;57.40;99569.97;5447801;26;20003;-65
2024/04/10 03:06:44;;;;;;;5.63;1.67;;;;;;;9.38;57.59;99574.59;5448723;26;20423;-65
2024/04/10 03:09:14;;;;;;;6.38;1.77;;;;;;;9.36;57.41;99595.09;5487754;26;19998;-65
2024/04/10 03:11:41;;;;;;;4.97;1.85;;;;;;;9.27;57.79;99596.97;5455882;26;20059;-65
2024/04/10 03:14:08;;;;;;;5.47;1.75;;;;;;;9.26;57.73;99601.59;5487808;26;20078;-65
2024/04/10 03:16:34;;;;;;;9.88;2.33;;;;;;;9.25;57.73;99607.34;5487936;26;20026;-65
2024/04/10 03:19:01;;;;;;;5.68;1.52;;;;;;;9.24;58.07;99608.47;5487301;26;20028;-66
2024/04/10 03:21:28;;;;;;;10.13;2.28;;;;;;;9.26;57.95;99612.47;5455137;26;19994;-65
2024/04/10 03:23:55;;;;;;;9.02;2.00;;;;;;;9.32;57.79;99621.34;5487415;26;20418;-64
2024/04/10 03:26:21;;;;;;;5.78;1.55;;;;;;;9.31;57.71;99627.91;5455779;26;19994;-64
2024/04/10 03:28:48;;;;;;;9.57;2.30;;;;;;;9.28;57.99;99628.50;5455698;26;20002;-64
2024/04/10 03:31:15;;;;;;;8.68;2.42;;;;;;;9.31;57.89;99623.25;5455886;26;19998;-65
2024/04/10 03:33:42;;;;;;;4.78;2.40;;;;;;;9.31;58.04;99625.97;5455116;26;20014;-65
2024/04/10 03:36:09;;;;;;;11.43;3.70;;;;;;;9.38;58.26;99626.31;5472291;26;20417;-65
2024/04/10 03:38:35;;;;;;;4.70;1.70;;;;;;;9.41;58.06;99631.13;5487097;26;20399;-65
2024/04/10 03:41:02;;;;;;;5.68;2.80;;;;;;;9.39;57.88;99633.38;5455269;26;19994;-65
2024/04/10 03:43:29;;;;;;;8.45;2.05;;;;;;;9.36;58.04;99634.00;5516339;26;20038;-65
2024/04/10 03:45:56;;;;;;;5.75;1.73;;;;;;;9.34;58.18;99633.50;5487676;26;19994;-65
2024/04/10 03:48:23;;;;;;;8.93;2.40;;;;;;;9.33;57.78;99639.28;5455411;26;20010;-65
2024/04/10 03:50:57;;;;;;;8.15;2.13;;;;;;;9.28;58.01;99644.81;5487033;26;20004;-65
2024/04/10 03:53:24;;;;;;;7.30;2.13;;;;;;;9.26;57.67;99644.34;5487325;26;20002;-65
2024/04/10 03:55:53;;;;;;;6.20;1.70;;;;;;;9.20;58.28;99651.03;5428695;26;20311;-65
2024/04/10 03:58:20;;;;;;;7.22;1.85;;;;;;;9.17;58.31;99655.19;5459339;26;20451;-65
2024/04/10 04:00:49;;;;;;;2.92;1.73;;;;;;;9.16;58.13;99655.50;5470195;26;20002;-65
2024/04/10 04:03:23;;;;;;;14.20;3.65;;;;;;;9.16;58.21;99655.50;5499333;26;20002;-65
2024/04/10 04:05:50;;;;;;;7.03;2.17;;;;;;;9.15;58.39;99664.78;5478068;26;20002;-65
2024/04/10 04:08:18;;;;;;;9.02;2.30;;;;;;;9.15;58.26;99664.78;5458614;26;20002;-65
2024/04/10 04:10:44;;;;;;;8.57;2.47;;;;;;;9.13;58.50;99667.81;5490228;26;20013;-65
2024/04/10 04:13:11;;;;;;;4.90;1.85;;;;;;;9.09;58.41;99674.97;5490589;26;20132;-65
2024/04/10 04:15:40;;;;;;;8.00;2.90;;;;;;;9.08;58.45;99685.03;5490760;26;20308;-65
2024/04/10 04:18:07;;;;;;;7.53;2.60;;;;;;;9.07;58.58;99688.88;5458649;26;19998;-65
2024/04/10 04:20:34;;;;;;;9.77;1.88;;;;;;;9.06;58.51;99689.19;5490136;26;19994;-65
2024/04/10 04:23:01;;;;;;;6.68;2.05;;;;;;;9.03;58.68;99697.97;5458223;26;20009;-66
2024/04/10 04:25:34;;;;;;;7.55;2.67;;;;;;;9.02;58.60;99707.25;5458045;26;19994;-65
2024/04/10 04:28:01;;;;;;;11.40;2.60;;;;;;;8.96;58.08;99712.03;5490581;26;20005;-65
2024/04/10 04:30:28;;;;;;;12.00;3.22;;;;;;;8.88;58.79;99712.72;5457771;26;19999;-66
2024/04/10 04:32:59;;;;;;;8.00;2.40;;;;;;;8.77;58.96;99719.53;5489295;26;19998;-66
2024/04/10 04:35:26;;;;;;;6.22;2.17;;;;;;;8.47;59.58;99727.25;5443384;26;20460;-65
2024/04/10 04:37:57;;;;;;;8.98;2.72;;;;;;;8.33;60.29;99731.84;5490165;26;20026;-65
2024/04/10 04:40:30;;;;;;;10.50;3.80;;;;;;;8.26;60.61;99738.81;5490126;26;20458;-65
2024/04/10 04:43:10;;;;;;;9.52;3.85;;;;;;;8.34;60.87;99735.41;5490219;26;20006;-66
2024/04/10 04:45:38;;;;;;;7.13;3.47;;;;;;;8.47;60.27;99746.28;5490690;26;20008;-66
2024/04/10 04:48:10;;;;;;;8.60;2.80;;;;;;;8.55;60.10;99744.75;5490448;26;20014;-66
2024/04/10 04:50:44;;;;;;;8.95;3.17;;;;;;;8.62;60.11;99760.66;5490177;26;20001;-65
2024/04/10 04:53:11;;;;;;;7.43;3.05;;;;;;;8.60;60.07;99765.59;5490545;26;20466;-65
2024/04/10 04:55:39;;;;;;;6.65;2.20;;;;;;;8.42;59.93;99773.56;5489774;26;19998;-65
2024/04/10 04:58:07;;;;;;;8.73;4.03;;;;;;;8.26;60.66;99779.56;5489834;26;19998;-65
2024/04/10 05:00:33;;;;;;;11.25;3.35;;;;;;;8.16;61.18;99788.72;5457097;26;20005;-66
2024/04/10 05:03:03;;;;;;;11.40;4.22;;;;;;;8.25;61.23;99794.28;5489310;26;20010;-65
2024/04/10 05:05:33;;;;;;;8.18;3.72;;;;;;;8.42;60.88;99789.88;5474962;26;20078;-65
2024/04/10 05:08:00;;;;;;;9.88;3.15;;;;;;;8.55;60.19;99803.75;5489753;26;20446;-65
2024/04/10 05:10:27;;;;;;;14.25;4.45;;;;;;;8.45;60.52;99807.47;5489400;26;20009;-65
2024/04/10 05:12:53;;;;;;;7.32;3.00;;;;;;;8.41;60.74;99801.84;5489833;26;19994;-64
2024/04/10 05:15:20;;;;;;;6.80;2.40;;;;;;;8.51;60.62;99808.97;5458005;26;20026;-66
2024/04/10 05:17:51;;;;;;;6.93;2.97;;;;;;;8.57;60.69;99809.72;5489710;26;19994;-65
2024/04/10 05:20:18;;;;;;;7.20;2.65;;;;;;;8.68;60.33;99819.25;5458347;26;20331;-65
2024/04/10 05:22:45;;;;;;;10.52;3.22;;;;;;;8.73;59.96;99821.84;5457883;26;20037;-64
2024/04/10 05:25:12;;;;;;;9.40;2.70;;;;;;;8.82;59.85;99821.97;5457985;26;20009;-65
2024/04/10 05:27:41;;;;;;;6.40;3.08;;;;;;;8.98;60.15;99823.25;5458333;26;20070;-65
2024/04/10 05:30:09;;;;;;;8.13;2.53;;;;;;;8.94;59.05;99830.41;5489789;26;20447;-66
2024/04/10 05:32:37;;;;;;;6.28;2.30;;;;;;;8.81;59.53;99834.75;5457826;26;20069;-65
2024/04/10 05:35:12;;;;;;;7.10;2.38;;;;;;;8.76;59.86;99838.38;5437860;26;20450;-65
2024/04/10 05:37:39;;;;;;;8.32;2.50;;;;;;;8.82;60.28;99847.25;5421368;26;20041;-65
2024/04/10 05:40:13;;;;;;;7.80;2.72;;;;;;;9.01;59.75;99847.91;5453417;26;19998;-66
2024/04/10 05:42:41;;;;;;;6.05;2.45;;;;;;;9.13;59.35;99852.84;5426586;26;20010;-66
2024/04/10 05:45:10;;;;;;;9.75;2.78;;;;;;;9.17;59.65;99850.31;5401401;26;20335;-65
2024/04/10 05:47:38;;;;;;;10.57;2.95;;;;;;;9.23;59.23;99851.81;5460853;26;19994;-66
2024/04/10 05:50:08;;;;;;;9.10;2.60;;;;;;;9.23;59.17;99854.53;5455118;26;20086;-65
2024/04/10 05:52:35;;;;;;;10.25;2.65;;;;;;;9.20;59.09;99855.13;5454549;26;19998;-66
2024/04/10 05:55:03;;;;;;;10.02;3.13;;;;;;;9.27;59.23;99850.06;5426267;26;19999;-64
2024/04/10 05:57:30;;;;;;;10.40;3.30;;;;;;;9.30;59.08;99855.72;5457554;26;19999;-65
2024/04/10 05:59:57;;;;;;;12.50;3.00;;;;;;;9.23;59.31;99863.50;5424919;26;20003;-64
2024/04/10 06:02:27;;;;;;;8.30;3.33;;;;;;;9.25;59.37;99866.72;5454022;26;20049;-64
2024/04/10 06:04:55;;;;;;;9.35;2.70;;;;;;;9.35;59.75;99868.41;5470094;26;20011;-67
2024/04/10 06:07:23;;;;;;;8.18;2.88;;;;;;;9.37;59.26;99874.34;5459612;26;19998;-67
2024/04/10 06:09:57;;;;;;;10.18;2.95;;;;;;;9.47;59.51;99865.13;5491774;26;20008;-67
2024/04/10 06:12:24;;;;;;;7.57;2.92;;;;;;;9.74;59.07;99872.41;5491531;26;20009;-66
2024/04/10 06:14:54;;;;;;;6.90;2.50;;;;;;;9.98;58.21;99876.41;5493217;26;20012;-66
2024/04/10 06:17:22;;;;;;;6.03;2.33;;;;;;;10.24;57.74;99879.34;5463333;26;20106;-65
2024/04/10 06:19:49;;;;;;;7.45;2.70;;;;;;;10.47;57.20;99888.28;5463511;26;20002;-65
2024/04/10 06:22:16;;;;;;;11.55;2.40;;;;;;;10.63;57.06;99885.94;5496815;26;20002;-66
2024/04/10 06:24:48;;;;;;;7.50;2.83;;;;;;;10.73;56.71;99888.38;5466502;26;20009;-66
2024/04/10 06:27:14;;;;;;;11.10;2.92;;;;;;;10.88;56.22;99898.84;5488962;26;20399;-65
2024/04/10 06:29:42;;;;;;;9.68;2.78;;;;;;;10.99;55.89;99891.19;5456835;26;19998;-65
2024/04/10 06:32:09;;;;;;;11.73;2.72;;;;;;;10.89;55.16;99905.13;5456749;26;19996;-66
2024/04/10 06:34:36;;;;;;;12.10;2.72;;;;;;;10.92;55.56;99899.84;5476070;26;20013;-65
2024/04/10 06:37:04;;;;;;;7.07;2.83;;;;;;;11.00;55.24;99897.47;5453358;26;20451;-66
2024/04/10 06:39:32;;;;;;;8.45;2.60;;;;;;;11.06;54.77;99896.19;5488466;26;20066;-65
2024/04/10 06:41:59;;;;;;;9.05;2.20;;;;;;;11.03;54.71;99891.38;5488134;26;20005;-66
2024/04/10 06:44:26;;;;;;;7.47;2.60;;;;;;;10.92;54.79;99888.91;5456372;26;20009;-66
2024/04/10 06:46:52;;;;;;;7.70;2.63;;;;;;;10.80;54.58;99888.75;5488385;26;20042;-67
2024/04/10 06:49:20;;;;;;;9.82;2.47;;;;;;;10.75;55.30;99883.41;5488436;26;20038;-66
2024/04/10 06:51:46;;;;;;;9.55;2.60;;;;;;;10.79;55.08;99889.06;5455952;26;19990;-67
2024/04/10 06:54:14;;;;;;;12.95;2.90;;;;;;;10.87;55.64;99897.25;5488533;26;20006;-66
2024/04/10 06:56:46;;;;;;;10.38;2.42;;;;;;;10.88;55.22;99900.78;5458142;26;20503;-65
2024/04/10 06:59:13;;;;;;;8.90;2.35;;;;;;;10.69;55.29;99906.50;5488312;26;20026;-66
2024/04/10 07:01:40;;;;;;;8.13;2.30;;;;;;;10.61;55.49;99910.00;5517277;26;19994;-65
2024/04/10 07:04:06;;;;;;;12.95;3.42;;;;;;;10.65;55.89;99910.97;5483934;26;20006;-66
2024/04/10 07:06:33;;;;;;;6.35;2.05;;;;;;;10.73;55.31;99904.75;5453974;26;20002;-67
2024/04/10 07:09:00;;;;;;;12.00;2.47;;;;;;;10.86;55.20;99903.84;5466508;26;20014;-66
2024/04/10 07:11:26;;;;;;;8.77;2.45;;;;;;;10.96;55.36;99904.66;5497318;26;20018;-66
2024/04/10 07:13:54;;;;;;;11.40;2.67;;;;;;;11.12;54.75;99905.81;5497515;26;20013;-66
2024/04/10 07:16:26;;;;;;;7.30;2.50;;;;;;;11.26;54.56;99911.97;5465806;26;20462;-65
2024/04/10 07:18:56;;;;;;;11.50;3.03;;;;;;;11.34;53.94;99913.91;5497367;26;20358;-64
2024/04/10 07:21:23;;;;;;;16.80;2.70;;;;;;;11.33;54.12;99911.47;5498315;26;19994;-64
2024/04/10 07:23:49;;;;;;;9.60;2.55;;;;;;;11.33;53.95;99917.75;5498522;26;20321;-64
2024/04/10 07:26:20;;;;;;;11.00;3.17;;;;;;;11.28;53.71;99922.56;5498264;26;19998;-64
2024/04/10 07:28:50;;;;;;;10.45;2.75;;;;;;;11.34;53.73;99927.56;5463863;26;20010;-64
2024/04/10 07:31:28;;;;;;;12.63;3.15;;;;;;;11.52;53.39;99933.84;5491945;26;19994;-63
2024/04/10 07:33:56;;;;;;;8.95;2.50;;;;;;;11.64;53.00;99935.94;5489489;26;20002;-63
2024/04/10 07:36:24;;;;;;;14.02;2.90;;;;;;;11.63;52.68;99937.88;5478715;26;20002;-66
2024/04/10 07:38:56;;;;;;;11.30;2.88;;;;;;;11.74;53.10;99938.38;5459222;26;20442;-67
2024/04/10 07:41:24;;;;;;;12.07;2.70;;;;;;;11.92;51.85;99948.22;5491446;26;19994;-66
2024/04/10 07:43:52;;;;;;;12.73;2.60;;;;;;;12.09;51.54;99941.94;5492063;26;20484;-66
2024/04/10 07:46:20;;;;;;;12.90;3.00;;;;;;;12.23;51.21;99944.47;5460070;26;19994;-67
2024/04/10 07:48:54;;;;;;;9.93;2.65;;;;;;;12.31;51.06;99954.63;5459561;26;19998;-66
2024/04/10 07:51:22;;;;;;;12.25;3.00;;;;;;;12.38;50.42;99952.97;5491154;26;20005;-66
2024/04/10 07:53:49;;;;;;;12.70;3.08;;;;;;;12.54;50.46;99963.41;5491456;26;20017;-66
2024/04/10 07:56:16;;;;;;;9.68;2.53;;;;;;;12.65;49.45;99965.50;5491655;26;20009;-66
2024/04/10 07:58:43;;;;;;;6.80;2.10;;;;;;;12.81;49.44;99982.16;5492376;26;20002;-66
2024/04/10 08:01:11;;;;;;;7.50;2.65;;;;;;;13.04;49.57;99975.34;5460497;26;19994;-65
2024/04/10 08:03:39;;;;;;;13.82;2.28;;;;;;;13.24;48.07;99979.28;5460807;26;20048;-65
2024/04/10 08:06:07;;;;;;;9.90;2.25;;;;;;;13.36;47.64;99981.31;5446874;26;20074;-66
2024/04/10 08:08:39;;;;;;;19.20;3.10;;;;;;;13.53;47.51;99985.88;5493363;26;19998;-66
2024/04/10 08:11:07;;;;;;;7.47;2.50;;;;;;;13.72;46.81;99983.50;5491122;26;20001;-66
2024/04/10 08:13:35;;;;;;;8.02;2.53;;;;;;;13.92;46.64;99979.97;5491562;26;20010;-66
2024/04/10 08:16:06;;;;;;;5.15;2.10;;;;;;;13.95;46.39;99981.25;5493250;26;20446;-66
2024/04/10 08:18:39;;;;;;;8.75;2.08;;;;;;;14.21;45.80;99983.78;5495361;26;20010;-65
2024/04/10 08:21:08;;;;;;;12.93;2.63;;;;;;;14.13;45.73;99988.22;5495190;26;20010;-65
2024/04/10 08:23:36;;;;;;;12.93;2.50;;;;;;;13.94;45.80;99991.44;5493504;26;20265;-67
2024/04/10 08:26:18;;;;;;;10.15;2.63;;;;;;;13.95;46.24;99992.22;5460450;26;20006;-67
2024/04/10 08:28:49;;;;;;;9.45;2.85;;;;;;;13.90;46.12;99993.22;5490855;26;20006;-67
2024/04/10 08:31:27;;;;;;;11.48;2.72;;;;;;;13.72;45.54;99996.41;5458523;26;20001;-67
2024/04/10 08:33:54;;;;;;;9.13;2.67;;;;;;;13.64;45.84;99998.88;5489236;26;20462;-67
2024/04/10 08:36:22;;;;;;;8.20;2.60;;;;;;;13.83;45.31;100000.38;5477797;26;20062;-67
2024/04/10 08:38:51;;;;;;;9.50;2.80;;;;;;;13.98;44.69;99991.56;5490498;26;20054;-67
2024/04/10 08:41:22;;;;;;;8.93;2.28;;;;;;;14.12;44.53;100004.97;5456815;26;20013;-68
2024/04/10 08:43:51;;;;;;;13.02;2.85;;;;;;;14.25;44.55;100012.13;5490458;26;19994;-67
2024/04/10 08:46:21;;;;;;;11.93;2.47;;;;;;;14.33;43.70;100011.28;5490770;26;20014;-66
2024/04/10 08:48:51;;;;;;;11.18;2.85;;;;;;;14.40;43.27;100013.47;5458422;26;20485;-66
2024/04/10 08:51:19;;;;;;;7.13;2.50;;;;;;;14.31;43.84;100023.69;5490131;26;20006;-64
2024/04/10 08:53:46;;;;;;;9.52;2.47;;;;;;;14.42;43.57;100019.41;5490082;26;19998;-66
2024/04/10 08:56:15;;;;;;;10.43;2.53;;;;;;;14.41;43.35;100026.84;5490199;26;20075;-66
2024/04/10 08:58:43;;;;;;;10.73;2.13;;;;;;;14.45;43.82;100022.31;5489930;26;20000;-66
2024/04/10 09:01:23;;;;;;;10.45;2.22;;;;;;;14.50;43.51;100035.03;5457476;26;20327;-66
2024/04/10 09:03:50;;;;;;;5.35;2.50;;;;;;;14.59;43.87;100041.25;5457498;26;19998;-67
2024/04/10 09:06:19;;;;;;;7.72;2.40;;;;;;;14.62;43.14;100039.75;5475189;26;20018;-66
2024/04/10 09:09:00;;;;;;;5.47;2.45;;;;;;;14.64;42.70;100037.47;5458428;26;20077;-65
2024/04/10 09:11:27;;;;;;;10.35;2.38;;;;;;;14.54;42.41;100045.00;5489851;26;19998;-66
2024/04/10 09:14:06;;;;;;;5.03;2.03;;;;;;;14.52;42.16;100044.56;5489954;26;20004;-65
2024/04/10 09:16:36;;;;;;;5.18;1.85;;;;;;;14.51;42.41;100033.91;5457510;26;20070;-66
2024/04/10 09:19:10;;;;;;;7.20;1.98;;;;;;;14.60;42.22;100044.78;5457936;26;20022;-65
2024/04/10 09:21:39;;;;;;;6.45;1.67;;;;;;;14.53;41.95;100048.09;5489550;26;20006;-66
2024/04/10 09:24:07;;;;;;;5.72;2.53;;;;;;;14.57;41.84;100040.78;5489713;26;20009;-67
2024/04/10 09:26:35;;;;;;;5.32;1.85;;;;;;;14.57;41.76;100040.78;5490058;26;20004;-66
2024/04/10 09:29:03;;;;;;;11.60;2.97;;;;;;;14.68;41.95;100036.47;5457473;26;20002;-66
2024/04/10 09:31:31;;;;;;;10.30;3.78;;;;;;;14.81;41.25;100040.84;5457081;26;20019;-66
2024/04/10 09:34:00;;;;;;;6.70;2.10;;;;;;;14.88;40.01;100032.09;5485910;26;20419;-67
2024/04/10 09:36:35;;;;;;;6.78;1.77;;;;;;;14.89;39.61;100024.66;5477724;26;20051;-67
2024/04/10 09:39:07;;;;;;;6.75;1.88;;;;;;;15.01;39.36;100024.66;5494196;26;20005;-67
2024/04/10 09:41:36;;;;;;;4.60;1.83;;;;;;;15.12;38.17;100031.31;5497783;26;20004;-67
2024/04/10 09:44:05;;;;;;;10.60;2.47;;;;;;;14.97;38.47;100030.03;5495851;26;20026;-67
2024/04/10 09:46:37;;;;;;;4.07;1.63;;;;;;;14.85;39.18;100040.97;5457479;26;20109;-67
2024/04/10 09:49:11;;;;;;;9.05;2.25;;;;;;;14.93;38.67;100040.09;5457127;26;20004;-66
2024/04/10 09:51:39;;;;;;;8.20;1.92;;;;;;;15.05;38.59;100039.31;5488904;26;20364;-67
2024/04/10 09:54:07;;;;;;;10.00;2.70;;;;;;;15.17;37.65;100041.28;5456399;26;20009;-67
2024/04/10 09:56:37;;;;;;;7.22;2.15;;;;;;;15.30;37.49;100046.44;5489013;26;20005;-67
2024/04/10 09:59:07;;;;;;;8.38;2.03;;;;;;;15.35;37.04;100046.22;5456681;26;20055;-67
2024/04/10 10:01:34;;;;;;;4.03;1.70;;;;;;;15.18;37.00;100035.44;5488727;26;20009;-67
2024/04/10 10:04:01;;;;;;;7.07;1.92;;;;;;;15.23;37.06;100031.66;5485291;26;20006;-67
2024/04/10 10:06:31;;;;;;;6.90;1.90;;;;;;;15.39;36.70;100036.13;5477320;26;20541;-68
2024/04/10 10:08:58;;;;;;;6.07;1.75;;;;;;;15.61;36.71;100034.91;5456989;26;20009;-68
2024/04/10 10:11:27;;;;;;;2.90;1.42;;;;;;;15.83;36.35;100035.59;5456784;26;20359;-68
2024/04/10 10:14:07;;;;;;;4.53;1.50;;;;;;;16.09;35.18;100038.75;5456982;26;20060;-69
2024/04/10 10:16:33;;;;;;;6.05;1.70;;;;;;;16.20;34.79;100022.56;5489004;26;20362;-68
2024/04/10 10:19:01;;;;;;;4.75;1.95;;;;;;;16.28;34.10;100024.34;5488516;26;20424;-69
2024/04/10 10:21:30;;;;;;;6.45;1.95;;;;;;;16.35;34.89;100024.53;5488612;26;20009;-68
2024/04/10 10:24:05;;;;;;;7.03;4.72;;;;;;;16.59;35.05;100023.66;5488608;26;20009;-68
2024/04/10 10:26:33;;;;;;;5.60;2.22;;;;;;;16.62;33.73;100029.25;5488904;26;19998;-66
2024/04/10 10:29:01;;;;;;;10.63;5.00;;;;;;;16.53;34.00;100031.34;5457070;26;20035;-67
2024/04/10 10:31:32;;;;;;;5.78;1.90;;;;;;;16.68;33.33;100032.59;5488954;26;20030;-70
2024/04/10 10:34:04;;;;;;;4.65;1.70;;;;;;;16.63;32.54;100028.09;5457842;26;20014;-66
2024/04/10 10:36:33;;;;;;;3.25;1.33;;;;;;;16.78;31.24;100040.34;5462945;26;19999;-67
2024/04/10 10:39:01;;;;;;;6.40;2.65;;;;;;;16.85;30.54;100029.50;5451843;26;20003;-66
2024/04/10 10:41:28;;;;;;;8.25;1.40;;;;;;;16.76;29.30;100020.63;5480429;26;19991;-67
2024/04/10 10:43:58;;;;;;;6.90;1.77;;;;;;;16.74;31.01;100025.69;5451964;26;20072;-67
2024/04/10 10:46:25;;;;;;;8.93;2.13;;;;;;;17.03;30.74;100031.94;5452440;26;19999;-67
2024/04/10 10:48:52;;;;;;;7.40;1.63;;;;;;;17.03;31.10;100038.25;5451826;26;19998;-67
2024/04/10 10:51:19;;;;;;;4.05;1.63;;;;;;;16.97;30.73;100033.34;5451755;26;20006;-67
2024/04/10 10:53:50;;;;;;;3.25;1.45;;;;;;;16.72;30.37;100032.69;5420621;26;20011;-67
2024/04/10 10:56:24;;;;;;;6.10;1.52;;;;;;;16.46;31.20;100024.84;5420477;26;20010;-67
2024/04/10 10:58:54;;;;;;;1.70;1.05;;;;;;;16.70;30.70;100029.47;5451898;26;20009;-67
2024/04/10 11:01:21;;;;;;;5.07;1.40;;;;;;;17.00;30.91;100033.44;5451597;26;20014;-67
2024/04/10 11:03:48;;;;;;;4.53;1.40;;;;;;;17.06;30.25;100023.75;5465292;26;20070;-67
2024/04/10 11:06:16;;;;;;;4.03;1.35;;;;;;;17.12;29.77;100025.09;5458145;26;20010;-67
2024/04/10 11:08:43;;;;;;;2.05;1.20;;;;;;;17.14;29.03;100028.31;5455775;26;20010;-67
2024/04/10 11:11:14;;;;;;;5.22;1.85;;;;;;;17.00;29.69;100029.88;5488199;26;20334;-67
2024/04/10 11:13:51;;;;;;;5.90;1.95;;;;;;;17.06;29.60;100031.22;5487061;26;20466;-67
2024/04/10 11:17:29;;;;;;;4.85;1.80;;;;;;;17.21;29.12;100022.97;5543174;25;20660;-66
2024/04/10 11:19:56;;;;;;;2.60;0.95;;;;;;;17.23;28.61;100022.59;5508146;25;20070;-67
2024/04/10 11:22:25;;;;;;;2.40;1.10;;;;;;;17.30;26.82;100019.25;5525161;25;19990;-67
2024/04/10 11:24:52;;;;;;;5.57;1.35;;;;;;;17.07;27.29;100016.28;5525972;26;19998;-67
2024/04/10 11:27:19;;;;;;;2.22;1.10;;;;;;;16.86;27.80;100022.03;5512836;25;20066;-67
2024/04/10 11:29:47;;;;;;;2.15;1.08;;;;;;;16.98;28.27;100018.41;5508742;25;19997;-66
2024/04/10 11:32:14;;;;;;;3.25;1.02;;;;;;;17.15;26.92;100010.59;5506699;25;20453;-66
2024/04/10 11:34:41;;;;;;;1.50;1.20;;;;;;;17.08;26.52;100010.41;5505040;25;20561;-66
2024/04/10 11:37:08;;;;;;;2.65;0.98;;;;;;;17.13;26.45;100015.69;5507057;25;20408;-66